sensor_id;sensor_type;location;lat;lon;timestamp;pressure;altitude;pressure_sealevel;temperature;humidity
77626;BME280;66794;43.764;10.436;2023-10-31T00:01:50;157960.31;;;40.04;nan
77626;BME280;66794;43.764;10.436;2023-10-31T00:04:36;155753.38;;;41.55;nan
77626;BME280;66794;43.764;10.436;2023-10-31T00:07:22;155453.28;;;40.34;nan
77626;BME280;66794;43.764;10.436;2023-10-31T00:10:08;158318.19;;;41.45;nan
77626;BME280;66794;43.764;10.436;2023-10-31T00:12:54;157959.22;;;38.57;nan
77626;BME280;66794;43.764;10.436;2023-10-31T00:15:40;157488.97;;;42.57;nan
77626;BME280;66794;43.764;10.436;2023-10-31T00:18:26;155211.56;;;39.36;nan
77626;BME280;66794;43.764;10.436;2023-10-31T00:21:11;156545.34;;;37.34;nan
77626;BME280;66794;43.764;10.436;2023-10-31T00:23:57;159311.41;;;36.66;nan
77626;BME280;66794;43.764;10.436;2023-10-31T00:26:43;159359.97;;;35.42;nan
77626;BME280;66794;43.764;10.436;2023-10-31T00:29:29;160332.03;;;34.92;nan
77626;BME280;66794;43.764;10.436;2023-10-31T00:32:14;160190.34;;;32.94;nan
77626;BME280;66794;43.764;10.436;2023-10-31T00:35:00;160010.09;;;32.25;nan
77626;BME280;66794;43.764;10.436;2023-10-31T00:37:46;160486.56;;;34.09;nan
77626;BME280;66794;43.764;10.436;2023-10-31T00:40:32;160270.63;;;33.26;nan
77626;BME280;66794;43.764;10.436;2023-10-31T00:43:17;160310.16;;;33.41;nan
77626;BME280;66794;43.764;10.436;2023-10-31T00:46:03;160350.94;;;33.57;nan
77626;BME280;66794;43.764;10.436;2023-10-31T00:48:50;160580.06;;;34.45;nan
77626;BME280;66794;43.764;10.436;2023-10-31T00:51:35;160728.91;;;35.03;nan
77626;BME280;66794;43.764;10.436;2023-10-31T00:54:22;160023.53;;;36.57;nan
77626;BME280;66794;43.764;10.436;2023-10-31T00:57:08;160892.13;;;39.95;nan
77626;BME280;66794;43.764;10.436;2023-10-31T00:59:54;157932.16;;;38.47;nan
77626;BME280;66794;43.764;10.436;2023-10-31T01:02:40;158758.78;;;37.37;nan
77626;BME280;66794;43.764;10.436;2023-10-31T01:05:26;157318.03;;;38.95;nan
77626;BME280;66794;43.764;10.436;2023-10-31T01:08:15;157278.88;;;40.26;nan
77626;BME280;66794;43.764;10.436;2023-10-31T01:11:01;156176.34;;;41.76;nan
77626;BME280;66794;43.764;10.436;2023-10-31T01:13:46;153866.59;;;39.88;nan
77626;BME280;66794;43.764;10.436;2023-10-31T01:16:32;155416.63;;;40.19;nan
77626;BME280;66794;43.764;10.436;2023-10-31T01:19:18;156170.69;;;35.85;nan
77626;BME280;66794;43.764;10.436;2023-10-31T01:22:04;158171.31;;;35.07;nan
77626;BME280;66794;43.764;10.436;2023-10-31T01:24:49;159352.09;;;35.39;nan
77626;BME280;66794;43.764;10.436;2023-10-31T01:27:35;160429.31;;;35.30;nan
77626;BME280;66794;43.764;10.436;2023-10-31T01:30:21;160547.09;;;34.33;nan
77626;BME280;66794;43.764;10.436;2023-10-31T01:33:07;160705.19;;;34.94;nan
77626;BME280;66794;43.764;10.436;2023-10-31T01:35:52;160652.44;;;34.73;nan
77626;BME280;66794;43.764;10.436;2023-10-31T01:38:38;160644.56;;;34.70;nan
77626;BME280;66794;43.764;10.436;2023-10-31T01:41:24;160300.88;;;33.37;nan
77626;BME280;66794;43.764;10.436;2023-10-31T01:44:10;160707.81;;;34.95;nan
77626;BME280;66794;43.764;10.436;2023-10-31T01:46:56;160694.59;;;34.90;nan
77626;BME280;66794;43.764;10.436;2023-10-31T01:49:41;160179.88;;;32.90;nan
77626;BME280;66794;43.764;10.436;2023-10-31T01:52:27;160093.16;;;33.02;nan
77626;BME280;66794;43.764;10.436;2023-10-31T01:55:14;160341.72;;;33.53;nan
77626;BME280;66794;43.764;10.436;2023-10-31T01:58:00;160318.06;;;33.44;nan
77626;BME280;66794;43.764;10.436;2023-10-31T02:00:46;160583.97;;;34.47;nan
77626;BME280;66794;43.764;10.436;2023-10-31T02:03:32;160894.91;;;35.67;nan
77626;BME280;66794;43.764;10.436;2023-10-31T02:06:18;160160.06;;;32.83;nan
77626;BME280;66794;43.764;10.436;2023-10-31T02:09:04;160681.41;;;34.85;nan
77626;BME280;66794;43.764;10.436;2023-10-31T02:11:50;160702.50;;;34.93;nan
77626;BME280;66794;43.764;10.436;2023-10-31T02:14:36;160320.69;;;33.45;nan
77626;BME280;66794;43.764;10.436;2023-10-31T02:17:22;160797.38;;;35.29;nan
77626;BME280;66794;43.764;10.436;2023-10-31T02:20:08;160881.72;;;35.62;nan
77626;BME280;66794;43.764;10.436;2023-10-31T02:22:54;160859.31;;;35.53;nan
77626;BME280;66794;43.764;10.436;2023-10-31T02:25:40;160565.53;;;34.40;nan
77626;BME280;66794;43.764;10.436;2023-10-31T02:28:26;160975.28;;;35.98;nan
77626;BME280;66794;43.764;10.436;2023-10-31T02:31:13;161162.22;;;36.72;nan
77626;BME280;66794;43.764;10.436;2023-10-31T02:33:59;160981.63;;;36.02;nan
77626;BME280;66794;43.764;10.436;2023-10-31T02:36:45;161192.75;;;36.82;nan
77626;BME280;66794;43.764;10.436;2023-10-31T02:39:31;160504.94;;;37.02;nan
77626;BME280;66794;43.764;10.436;2023-10-31T02:42:16;161135.59;;;38.04;nan
77626;BME280;66794;43.764;10.436;2023-10-31T02:45:02;160333.84;;;37.78;nan
77626;BME280;66794;43.764;10.436;2023-10-31T02:47:48;159947.69;;;37.71;nan
77626;BME280;66794;43.764;10.436;2023-10-31T02:50:34;160007.75;;;35.09;nan
77626;BME280;66794;43.764;10.436;2023-10-31T02:53:20;160433.63;;;33.90;nan
77626;BME280;66794;43.764;10.436;2023-10-31T02:56:06;160140.34;;;32.75;nan
77626;BME280;66794;43.764;10.436;2023-10-31T02:58:52;160171.91;;;32.87;nan
77626;BME280;66794;43.764;10.436;2023-10-31T03:01:38;159738.34;;;32.62;nan
77626;BME280;66794;43.764;10.436;2023-10-31T03:04:23;157805.28;;;32.19;nan
77626;BME280;66794;43.764;10.436;2023-10-31T03:07:09;158377.91;;;33.01;nan
77626;BME280;66794;43.764;10.436;2023-10-31T03:09:55;155738.06;;;32.66;nan
77626;BME280;66794;43.764;10.436;2023-10-31T03:12:41;155729.81;;;34.09;nan
77626;BME280;66794;43.764;10.436;2023-10-31T03:15:26;154383.03;;;31.61;nan
77626;BME280;66794;43.764;10.436;2023-10-31T03:18:13;154110.47;;;31.98;nan
77626;BME280;66794;43.764;10.436;2023-10-31T03:21:00;155168.13;;;31.84;nan
77626;BME280;66794;43.764;10.436;2023-10-31T03:23:49;156038.56;;;32.41;nan
77626;BME280;66794;43.764;10.436;2023-10-31T03:26:35;155492.47;;;31.68;nan
77626;BME280;66794;43.764;10.436;2023-10-31T03:29:21;155413.22;;;31.37;nan
77626;BME280;66794;43.764;10.436;2023-10-31T03:32:07;155081.38;;;31.50;nan
77626;BME280;66794;43.764;10.436;2023-10-31T03:34:52;155219.16;;;32.05;nan
77626;BME280;66794;43.764;10.436;2023-10-31T03:37:38;155651.06;;;32.32;nan
77626;BME280;66794;43.764;10.436;2023-10-31T03:40:26;155737.28;;;31.21;nan
77626;BME280;66794;43.764;10.436;2023-10-31T03:43:12;155648.53;;;32.31;nan
77626;BME280;66794;43.764;10.436;2023-10-31T03:45:58;156012.88;;;32.31;nan
77626;BME280;66794;43.764;10.436;2023-10-31T03:48:44;155701.00;;;32.52;nan
77626;BME280;66794;43.764;10.436;2023-10-31T03:51:30;156504.47;;;32.81;nan
77626;BME280;66794;43.764;10.436;2023-10-31T03:54:17;156047.50;;;32.44;nan
77626;BME280;66794;43.764;10.436;2023-10-31T03:57:02;156212.94;;;33.10;nan
77626;BME280;66794;43.764;10.436;2023-10-31T03:59:48;155065.28;;;34.35;nan
77626;BME280;66794;43.764;10.436;2023-10-31T04:02:34;153430.97;;;35.13;nan
77626;BME280;66794;43.764;10.436;2023-10-31T04:05:20;152908.53;;;35.98;nan
77626;BME280;66794;43.764;10.436;2023-10-31T04:08:06;152391.19;;;32.39;nan
77626;BME280;66794;43.764;10.436;2023-10-31T04:10:51;152422.72;;;31.04;nan
77626;BME280;66794;43.764;10.436;2023-10-31T04:13:37;152661.09;;;32.01;nan
77626;BME280;66794;43.764;10.436;2023-10-31T04:16:23;151608.34;;;32.16;nan
77626;BME280;66794;43.764;10.436;2023-10-31T04:19:08;151639.47;;;32.29;nan
77626;BME280;66794;43.764;10.436;2023-10-31T04:21:54;151396.63;;;31.30;nan
77626;BME280;66794;43.764;10.436;2023-10-31T04:24:40;153773.56;;;30.62;nan
77626;BME280;66794;43.764;10.436;2023-10-31T04:27:26;154725.56;;;30.07;nan
77626;BME280;66794;43.764;10.436;2023-10-31T04:30:12;154994.03;;;29.70;nan
77626;BME280;66794;43.764;10.436;2023-10-31T04:32:58;154679.69;;;29.89;nan
77626;BME280;66794;43.764;10.436;2023-10-31T04:35:44;155098.78;;;30.11;nan
77626;BME280;66794;43.764;10.436;2023-10-31T04:38:29;154061.91;;;30.32;nan
77626;BME280;66794;43.764;10.436;2023-10-31T04:41:15;151830.53;;;30.10;nan
77626;BME280;66794;43.764;10.436;2023-10-31T04:44:01;149938.53;;;29.78;nan
77626;BME280;66794;43.764;10.436;2023-10-31T04:46:46;149955.88;;;29.85;nan
77626;BME280;66794;43.764;10.436;2023-10-31T04:49:35;151460.41;;;30.07;nan
77626;BME280;66794;43.764;10.436;2023-10-31T04:52:21;150399.97;;;30.19;nan
77626;BME280;66794;43.764;10.436;2023-10-31T04:55:08;149586.13;;;29.82;nan
77626;BME280;66794;43.764;10.436;2023-10-31T04:57:54;149682.25;;;30.22;nan
77626;BME280;66794;43.764;10.436;2023-10-31T05:00:40;150368.94;;;30.06;nan
77626;BME280;66794;43.764;10.436;2023-10-31T05:03:26;150297.16;;;29.76;nan
77626;BME280;66794;43.764;10.436;2023-10-31T05:06:12;150643.41;;;29.70;nan
77626;BME280;66794;43.764;10.436;2023-10-31T05:08:58;149803.91;;;29.22;nan
77626;BME280;66794;43.764;10.436;2023-10-31T05:11:44;148463.91;;;29.67;nan
77626;BME280;66794;43.764;10.436;2023-10-31T05:14:29;146778.34;;;30.20;nan
77626;BME280;66794;43.764;10.436;2023-10-31T05:17:15;147698.38;;;29.50;nan
77626;BME280;66794;43.764;10.436;2023-10-31T05:20:01;147818.88;;;30.00;nan
77626;BME280;66794;43.764;10.436;2023-10-31T05:22:47;147905.41;;;28.85;nan
77626;BME280;66794;43.764;10.436;2023-10-31T05:25:32;149457.97;;;29.29;nan
77626;BME280;66794;43.764;10.436;2023-10-31T05:28:18;148343.47;;;30.68;nan
77626;BME280;66794;43.764;10.436;2023-10-31T05:31:04;147553.88;;;30.41;nan
77626;BME280;66794;43.764;10.436;2023-10-31T05:33:50;147829.84;;;30.05;nan
77626;BME280;66794;43.764;10.436;2023-10-31T05:36:37;149592.25;;;29.84;nan
77626;BME280;66794;43.764;10.436;2023-10-31T05:39:23;150527.94;;;29.22;nan
77626;BME280;66794;43.764;10.436;2023-10-31T05:42:09;150684.34;;;29.86;nan
77626;BME280;66794;43.764;10.436;2023-10-31T05:44:55;152390.16;;;29.43;nan
77626;BME280;66794;43.764;10.436;2023-10-31T05:47:42;151920.63;;;30.47;nan
77626;BME280;66794;43.764;10.436;2023-10-31T05:50:28;151295.75;;;29.40;nan
77626;BME280;66794;43.764;10.436;2023-10-31T05:53:13;151613.03;;;29.22;nan
77626;BME280;66794;43.764;10.436;2023-10-31T05:55:59;151653.03;;;29.38;nan
77626;BME280;66794;43.764;10.436;2023-10-31T05:58:45;145652.56;;;28.49;nan
77626;BME280;66794;43.764;10.436;2023-10-31T06:01:31;149056.69;;;29.13;nan
77626;BME280;66794;43.764;10.436;2023-10-31T06:04:16;143103.72;;;29.96;nan
77626;BME280;66794;43.764;10.436;2023-10-31T06:07:08;142636.00;;;31.07;nan
77626;BME280;66794;43.764;10.436;2023-10-31T06:09:53;142189.50;;;30.71;nan
77626;BME280;66794;43.764;10.436;2023-10-31T06:12:39;140185.75;;;29.85;nan
77626;BME280;66794;43.764;10.436;2023-10-31T06:15:25;145507.13;;;29.41;nan
77626;BME280;66794;43.764;10.436;2023-10-31T06:18:11;144848.38;;;29.69;nan
77626;BME280;66794;43.764;10.436;2023-10-31T06:20:56;148355.06;;;29.22;nan
77626;BME280;66794;43.764;10.436;2023-10-31T06:23:43;146463.00;;;28.87;nan
77626;BME280;66794;43.764;10.436;2023-10-31T06:26:30;147526.84;;;28.78;nan
77626;BME280;66794;43.764;10.436;2023-10-31T06:29:16;149482.59;;;29.39;nan
77626;BME280;66794;43.764;10.436;2023-10-31T06:32:02;150055.75;;;28.77;nan
77626;BME280;66794;43.764;10.436;2023-10-31T06:34:48;149749.59;;;29.00;nan
77626;BME280;66794;43.764;10.436;2023-10-31T06:37:33;150629.75;;;29.64;nan
77626;BME280;66794;43.764;10.436;2023-10-31T06:40:20;150606.16;;;29.54;nan
77626;BME280;66794;43.764;10.436;2023-10-31T06:43:06;149690.88;;;30.25;nan
77626;BME280;66794;43.764;10.436;2023-10-31T06:45:51;147298.84;;;29.34;nan
77626;BME280;66794;43.764;10.436;2023-10-31T06:48:37;147624.16;;;29.19;nan
77626;BME280;66794;43.764;10.436;2023-10-31T06:51:23;148515.28;;;29.89;nan
77626;BME280;66794;43.764;10.436;2023-10-31T06:54:08;146639.41;;;29.61;nan
77626;BME280;66794;43.764;10.436;2023-10-31T06:56:54;146525.81;;;30.66;nan
77626;BME280;66794;43.764;10.436;2023-10-31T06:59:40;145231.63;;;29.78;nan
77626;BME280;66794;43.764;10.436;2023-10-31T07:02:27;146661.16;;;29.70;nan
77626;BME280;66794;43.764;10.436;2023-10-31T07:05:12;146556.03;;;29.26;nan
77626;BME280;66794;43.764;10.436;2023-10-31T07:07:59;147995.69;;;29.23;nan
77626;BME280;66794;43.764;10.436;2023-10-31T07:10:45;149403.34;;;30.56;nan
77626;BME280;66794;43.764;10.436;2023-10-31T07:13:30;149218.59;;;31.30;nan
77626;BME280;66794;43.764;10.436;2023-10-31T07:16:16;148721.81;;;29.24;nan
77626;BME280;66794;43.764;10.436;2023-10-31T07:19:02;147603.50;;;29.10;nan
77626;BME280;66794;43.764;10.436;2023-10-31T07:21:48;146780.91;;;28.68;nan
77626;BME280;66794;43.764;10.436;2023-10-31T07:24:33;146399.03;;;28.60;nan
77626;BME280;66794;43.764;10.436;2023-10-31T07:27:21;145407.69;;;28.99;nan
77626;BME280;66794;43.764;10.436;2023-10-31T07:30:07;148392.97;;;29.38;nan
77626;BME280;66794;43.764;10.436;2023-10-31T07:32:53;147258.03;;;27.65;nan
77626;BME280;66794;43.764;10.436;2023-10-31T07:35:39;148975.56;;;28.79;nan
77626;BME280;66794;43.764;10.436;2023-10-31T07:38:24;149623.66;;;28.48;nan
77626;BME280;66794;43.764;10.436;2023-10-31T07:41:10;149762.50;;;27.56;nan
77626;BME280;66794;43.764;10.436;2023-10-31T07:43:56;151121.22;;;28.69;nan
77626;BME280;66794;43.764;10.436;2023-10-31T07:46:42;152392.56;;;27.97;nan
77626;BME280;66794;43.764;10.436;2023-10-31T07:49:27;151551.78;;;28.97;nan
77626;BME280;66794;43.764;10.436;2023-10-31T07:52:14;151466.81;;;28.62;nan
77626;BME280;66794;43.764;10.436;2023-10-31T07:55:00;150487.16;;;27.57;nan
77626;BME280;66794;43.764;10.436;2023-10-31T07:57:45;151729.69;;;28.22;nan
77626;BME280;66794;43.764;10.436;2023-10-31T08:00:31;150303.38;;;28.30;nan
77626;BME280;66794;43.764;10.436;2023-10-31T08:03:18;152490.72;;;28.37;nan
77626;BME280;66794;43.764;10.436;2023-10-31T08:06:05;152556.16;;;28.64;nan
77626;BME280;66794;43.764;10.436;2023-10-31T08:08:52;150262.47;;;28.13;nan
77626;BME280;66794;43.764;10.436;2023-10-31T08:11:38;152562.47;;;28.66;nan
77626;BME280;66794;43.764;10.436;2023-10-31T08:14:23;152996.34;;;28.95;nan
77626;BME280;66794;43.764;10.436;2023-10-31T08:17:09;154665.66;;;29.83;nan
77626;BME280;66794;43.764;10.436;2023-10-31T08:19:55;154792.22;;;28.89;nan
77626;BME280;66794;43.764;10.436;2023-10-31T08:22:41;154522.97;;;29.26;nan
77626;BME280;66794;43.764;10.436;2023-10-31T08:25:29;150271.16;;;29.66;nan
77626;BME280;66794;43.764;10.436;2023-10-31T08:28:15;153414.16;;;29.18;nan
77626;BME280;66794;43.764;10.436;2023-10-31T08:31:01;153102.34;;;29.38;nan
77626;BME280;66794;43.764;10.436;2023-10-31T08:33:48;153382.56;;;29.05;nan
77626;BME280;66794;43.764;10.436;2023-10-31T08:36:34;153610.44;;;28.51;nan
77626;BME280;66794;43.764;10.436;2023-10-31T08:39:19;151773.53;;;28.40;nan
77626;BME280;66794;43.764;10.436;2023-10-31T08:42:05;153288.94;;;28.67;nan
77626;BME280;66794;43.764;10.436;2023-10-31T08:44:51;153378.78;;;29.03;nan
77626;BME280;66794;43.764;10.436;2023-10-31T08:47:37;153791.72;;;29.24;nan
77626;BME280;66794;43.764;10.436;2023-10-31T08:50:22;152250.72;;;28.87;nan
77626;BME280;66794;43.764;10.436;2023-10-31T08:53:08;154861.19;;;29.17;nan
77626;BME280;66794;43.764;10.436;2023-10-31T08:55:54;154552.22;;;27.93;nan
77626;BME280;66794;43.764;10.436;2023-10-31T08:58:40;153204.25;;;28.33;nan
77626;BME280;66794;43.764;10.436;2023-10-31T09:01:27;153146.03;;;28.10;nan
77626;BME280;66794;43.764;10.436;2023-10-31T09:04:14;152750.34;;;27.96;nan
77626;BME280;66794;43.764;10.436;2023-10-31T09:07:00;153669.97;;;28.75;nan
77626;BME280;66794;43.764;10.436;2023-10-31T09:09:45;154905.84;;;29.34;nan
77626;BME280;66794;43.764;10.436;2023-10-31T09:12:31;155691.44;;;29.58;nan
77626;BME280;66794;43.764;10.436;2023-10-31T09:15:17;154337.22;;;29.97;nan
77626;BME280;66794;43.764;10.436;2023-10-31T09:18:04;153085.94;;;29.31;nan
77626;BME280;66794;43.764;10.436;2023-10-31T09:20:50;153005.72;;;30.46;nan
77626;BME280;66794;43.764;10.436;2023-10-31T09:23:36;153584.97;;;29.86;nan
77626;BME280;66794;43.764;10.436;2023-10-31T09:26:22;152558.66;;;28.65;nan
77626;BME280;66794;43.764;10.436;2023-10-31T09:29:07;154557.31;;;29.40;nan
77626;BME280;66794;43.764;10.436;2023-10-31T09:31:53;154470.72;;;29.05;nan
77626;BME280;66794;43.764;10.436;2023-10-31T09:34:39;153401.56;;;30.59;nan
77626;BME280;66794;43.764;10.436;2023-10-31T09:37:24;150504.38;;;29.13;nan
77626;BME280;66794;43.764;10.436;2023-10-31T09:40:10;152360.03;;;29.31;nan
77626;BME280;66794;43.764;10.436;2023-10-31T09:42:56;151425.47;;;29.93;nan
77626;BME280;66794;43.764;10.436;2023-10-31T09:45:42;151533.03;;;28.89;nan
77626;BME280;66794;43.764;10.436;2023-10-31T09:48:28;152175.72;;;30.03;nan
77626;BME280;66794;43.764;10.436;2023-10-31T09:51:14;152065.47;;;29.58;nan
77626;BME280;66794;43.764;10.436;2023-10-31T09:54:02;151431.69;;;29.96;nan
77626;BME280;66794;43.764;10.436;2023-10-31T09:56:48;152703.09;;;30.70;nan
77626;BME280;66794;43.764;10.436;2023-10-31T09:59:34;151640.53;;;29.33;nan
77626;BME280;66794;43.764;10.436;2023-10-31T10:02:20;151290.78;;;29.38;nan
77626;BME280;66794;43.764;10.436;2023-10-31T10:05:07;153335.91;;;30.32;nan
77626;BME280;66794;43.764;10.436;2023-10-31T10:07:57;153373.75;;;31.94;nan
77626;BME280;66794;43.764;10.436;2023-10-31T10:10:43;151796.81;;;29.97;nan
77626;BME280;66794;43.764;10.436;2023-10-31T10:13:29;151809.31;;;30.02;nan
77626;BME280;66794;43.764;10.436;2023-10-31T10:16:31;152416.47;;;31.01;nan
77626;BME280;66794;43.764;10.436;2023-10-31T10:19:18;152608.81;;;30.32;nan
77626;BME280;66794;43.764;10.436;2023-10-31T10:22:05;154278.69;;;29.74;nan
77626;BME280;66794;43.764;10.436;2023-10-31T10:24:50;154075.84;;;30.38;nan
77626;BME280;66794;43.764;10.436;2023-10-31T10:27:37;153147.78;;;29.56;nan
77626;BME280;66794;43.764;10.436;2023-10-31T10:30:23;153825.97;;;29.38;nan
77626;BME280;66794;43.764;10.436;2023-10-31T10:33:08;153193.47;;;31.22;nan
77626;BME280;66794;43.764;10.436;2023-10-31T10:35:55;152010.31;;;29.36;nan
77626;BME280;66794;43.764;10.436;2023-10-31T10:38:42;152800.41;;;29.63;nan
77626;BME280;66794;43.764;10.436;2023-10-31T10:41:30;152806.16;;;31.12;nan
77626;BME280;66794;43.764;10.436;2023-10-31T10:44:30;149640.31;;;30.04;nan
77626;BME280;66794;43.764;10.436;2023-10-31T10:47:18;149486.28;;;29.41;nan
77626;BME280;66794;43.764;10.436;2023-10-31T10:50:05;150085.56;;;30.38;nan
77626;BME280;66794;43.764;10.436;2023-10-31T10:53:01;151414.25;;;29.89;nan
77626;BME280;66794;43.764;10.436;2023-10-31T10:56:13;149292.94;;;28.61;nan
77626;BME280;66794;43.764;10.436;2023-10-31T10:59:05;151683.00;;;29.50;nan
77626;BME280;66794;43.764;10.436;2023-10-31T11:01:52;152299.81;;;30.54;nan
77626;BME280;66794;43.764;10.436;2023-10-31T11:04:42;152957.03;;;31.73;nan
77626;BME280;66794;43.764;10.436;2023-10-31T11:07:28;149336.97;;;30.29;nan
77626;BME280;66794;43.764;10.436;2023-10-31T11:10:14;148121.38;;;29.75;nan
77626;BME280;66794;43.764;10.436;2023-10-31T11:13:01;150263.72;;;29.63;nan
77626;BME280;66794;43.764;10.436;2023-10-31T11:15:53;151451.69;;;30.04;nan
77626;BME280;66794;43.764;10.436;2023-10-31T11:18:41;149487.50;;;29.41;nan
77626;BME280;66794;43.764;10.436;2023-10-31T11:21:28;152430.41;;;29.59;nan
77626;BME280;66794;43.764;10.436;2023-10-31T11:24:15;151981.44;;;29.24;nan
77626;BME280;66794;43.764;10.436;2023-10-31T11:27:02;151706.25;;;31.08;nan
77626;BME280;66794;43.764;10.436;2023-10-31T11:29:48;151160.03;;;30.33;nan
77626;BME280;66794;43.764;10.436;2023-10-31T11:32:34;152167.09;;;31.48;nan
77626;BME280;66794;43.764;10.436;2023-10-31T11:35:21;149388.59;;;30.50;nan
77626;BME280;66794;43.764;10.436;2023-10-31T11:38:09;151685.06;;;30.99;nan
77626;BME280;66794;43.764;10.436;2023-10-31T11:41:01;152571.09;;;30.17;nan
77626;BME280;66794;43.764;10.436;2023-10-31T11:46:33;153497.63;;;29.51;nan
77626;BME280;66794;43.764;10.436;2023-10-31T11:49:47;151715.56;;;29.64;nan
77626;BME280;66794;43.764;10.436;2023-10-31T11:52:35;152786.56;;;29.57;nan
77626;BME280;66794;43.764;10.436;2023-10-31T11:55:21;153712.81;;;30.38;nan
77626;BME280;66794;43.764;10.436;2023-10-31T11:58:23;150642.16;;;29.69;nan
77626;BME280;66794;43.764;10.436;2023-10-31T12:01:11;152707.19;;;29.25;nan
77626;BME280;66794;43.764;10.436;2023-10-31T12:03:56;152238.44;;;30.29;nan
77626;BME280;66794;43.764;10.436;2023-10-31T12:06:42;151583.06;;;29.10;nan
77626;BME280;66794;43.764;10.436;2023-10-31T12:09:28;152662.81;;;30.54;nan
77626;BME280;66794;43.764;10.436;2023-10-31T12:12:14;152543.44;;;30.05;nan
77626;BME280;66794;43.764;10.436;2023-10-31T12:15:07;151708.06;;;29.60;nan
77626;BME280;66794;43.764;10.436;2023-10-31T12:17:58;153243.69;;;29.95;nan
77626;BME280;66794;43.764;10.436;2023-10-31T12:20:50;152802.38;;;31.10;nan
77626;BME280;66794;43.764;10.436;2023-10-31T12:23:36;153358.63;;;30.42;nan
77626;BME280;66794;43.764;10.436;2023-10-31T12:26:22;151349.34;;;28.14;nan
77626;BME280;66794;43.764;10.436;2023-10-31T12:29:18;149575.03;;;29.77;nan
77626;BME280;66794;43.764;10.436;2023-10-31T12:32:05;149279.13;;;30.05;nan
77626;BME280;66794;43.764;10.436;2023-10-31T12:34:50;151506.78;;;28.78;nan
77626;BME280;66794;43.764;10.436;2023-10-31T12:37:37;152667.41;;;32.03;nan
77626;BME280;66794;43.764;10.436;2023-10-31T12:40:24;155611.84;;;29.27;nan
77626;BME280;66794;43.764;10.436;2023-10-31T12:43:10;154550.97;;;29.38;nan
77626;BME280;66794;43.764;10.436;2023-10-31T12:45:56;151595.56;;;29.15;nan
77626;BME280;66794;43.764;10.436;2023-10-31T12:48:42;153512.72;;;31.04;nan
77626;BME280;66794;43.764;10.436;2023-10-31T12:51:27;153468.53;;;29.40;nan
77626;BME280;66794;43.764;10.436;2023-10-31T12:54:27;152655.31;;;30.51;nan
77626;BME280;66794;43.764;10.436;2023-10-31T12:57:13;152960.97;;;28.81;nan
77626;BME280;66794;43.764;10.436;2023-10-31T12:59:59;153734.34;;;30.47;nan
77626;BME280;66794;43.764;10.436;2023-10-31T13:02:47;152233.41;;;30.27;nan
77626;BME280;66794;43.764;10.436;2023-10-31T13:05:33;151152.56;;;31.79;nan
77626;BME280;66794;43.764;10.436;2023-10-31T13:08:19;152563.25;;;31.61;nan
77626;BME280;66794;43.764;10.436;2023-10-31T13:11:07;151530.31;;;30.36;nan
77626;BME280;66794;43.764;10.436;2023-10-31T13:13:54;151302.00;;;29.43;nan
77626;BME280;66794;43.764;10.436;2023-10-31T13:16:40;150797.31;;;30.33;nan
77626;BME280;66794;43.764;10.436;2023-10-31T13:19:26;150402.44;;;30.20;nan
77626;BME280;66794;43.764;10.436;2023-10-31T13:22:12;150658.28;;;29.76;nan
77626;BME280;66794;43.764;10.436;2023-10-31T13:24:58;152024.09;;;29.42;nan
77626;BME280;66794;43.764;10.436;2023-10-31T13:27:44;152726.97;;;30.80;nan
77626;BME280;66794;43.764;10.436;2023-10-31T13:30:32;151514.09;;;30.29;nan
77626;BME280;66794;43.764;10.436;2023-10-31T13:33:18;153287.69;;;28.67;nan
77626;BME280;66794;43.764;10.436;2023-10-31T13:36:04;154373.91;;;28.67;nan
77626;BME280;66794;43.764;10.436;2023-10-31T13:38:50;152607.75;;;28.85;nan
77626;BME280;66794;43.764;10.436;2023-10-31T13:41:36;154362.63;;;30.07;nan
77626;BME280;66794;43.764;10.436;2023-10-31T13:44:22;154999.13;;;29.72;nan
77626;BME280;66794;43.764;10.436;2023-10-31T13:47:08;153850.06;;;29.47;nan
77626;BME280;66794;43.764;10.436;2023-10-31T13:49:55;155020.88;;;29.80;nan
77626;BME280;66794;43.764;10.436;2023-10-31T13:52:41;154092.34;;;30.45;nan
77626;BME280;66794;43.764;10.436;2023-10-31T13:55:26;155466.97;;;30.14;nan
77626;BME280;66794;43.764;10.436;2023-10-31T13:58:12;155332.16;;;28.16;nan
77626;BME280;66794;43.764;10.436;2023-10-31T14:00:58;155863.84;;;28.83;nan
77626;BME280;66794;43.764;10.436;2023-10-31T14:03:44;155206.09;;;30.54;nan
77626;BME280;66794;43.764;10.436;2023-10-31T14:06:30;153747.34;;;29.06;nan
77626;BME280;66794;43.764;10.436;2023-10-31T14:09:17;154965.94;;;29.58;nan
77626;BME280;66794;43.764;10.436;2023-10-31T14:12:03;155799.56;;;28.58;nan
77626;BME280;66794;43.764;10.436;2023-10-31T14:14:49;155899.84;;;28.97;nan
77626;BME280;66794;43.764;10.436;2023-10-31T14:17:35;156242.97;;;28.90;nan
77626;BME280;66794;43.764;10.436;2023-10-31T14:20:21;154646.66;;;28.31;nan
77626;BME280;66794;43.764;10.436;2023-10-31T14:23:07;154756.19;;;30.20;nan
77626;BME280;66794;43.764;10.436;2023-10-31T14:25:52;155377.09;;;28.34;nan
77626;BME280;66794;43.764;10.436;2023-10-31T14:28:38;155070.09;;;28.55;nan
77626;BME280;66794;43.764;10.436;2023-10-31T14:31:24;154905.03;;;27.90;nan
77626;BME280;66794;43.764;10.436;2023-10-31T14:34:10;155647.88;;;27.97;nan
77626;BME280;66794;43.764;10.436;2023-10-31T14:36:56;154974.09;;;28.17;nan
77626;BME280;66794;43.764;10.436;2023-10-31T14:39:42;156084.44;;;28.27;nan
77626;BME280;66794;43.764;10.436;2023-10-31T14:42:28;156418.13;;;28.16;nan
77626;BME280;66794;43.764;10.436;2023-10-31T14:45:14;156868.28;;;28.50;nan